createdAt,value
2022-09-07T00:00:54.902Z,985.63
2022-09-07T00:01:54.881Z,985.64
2022-09-07T00:02:54.935Z,985.75
2022-09-07T00:03:54.969Z,985.85
2022-09-07T00:04:54.881Z,985.95
2022-09-07T00:05:54.829Z,986.03
2022-09-07T00:06:54.818Z,986.20
2022-09-07T00:07:54.810Z,986.50
2022-09-07T00:08:54.800Z,986.71
2022-09-07T00:09:54.787Z,986.90
2022-09-07T00:10:54.829Z,987.20
2022-09-07T00:11:54.785Z,987.39
2022-09-07T00:12:54.765Z,987.58
2022-09-07T00:13:54.799Z,987.64
2022-09-07T00:14:54.739Z,987.64
2022-09-07T00:15:54.784Z,987.61
2022-09-07T00:16:54.739Z,987.65
2022-09-07T00:17:54.703Z,987.72
2022-09-07T00:18:54.709Z,987.66
2022-09-07T00:19:54.682Z,987.60
2022-09-07T00:20:54.690Z,987.69
2022-09-07T00:21:54.663Z,987.70
2022-09-07T00:22:54.692Z,987.73
2022-09-07T00:23:54.643Z,987.79
2022-09-07T00:24:55.358Z,987.96
2022-09-07T00:25:54.643Z,988.04
2022-09-07T00:26:54.625Z,988.05
2022-09-07T00:27:54.609Z,987.95
2022-09-07T00:28:54.847Z,987.79
2022-09-07T00:29:54.580Z,987.74
2022-09-07T00:30:54.585Z,987.64
2022-09-07T00:31:54.606Z,987.54
2022-09-07T00:32:54.551Z,987.49
2022-09-07T00:33:54.544Z,987.38
2022-09-07T00:34:54.532Z,987.39
2022-09-07T00:35:54.554Z,987.31
2022-09-07T00:36:54.509Z,987.22
2022-09-07T00:37:54.501Z,987.14
2022-09-07T00:38:54.507Z,987.10
2022-09-07T00:39:54.521Z,987.08
2022-09-07T00:40:54.503Z,986.98
2022-09-07T00:41:54.461Z,986.90
2022-09-07T00:42:54.660Z,986.80
2022-09-07T00:43:54.453Z,986.72
2022-09-07T00:44:54.428Z,986.72
2022-09-07T00:45:54.433Z,986.66
2022-09-07T00:46:54.480Z,986.57
2022-09-07T00:47:54.404Z,986.61
2022-09-07T00:48:54.406Z,986.62
2022-09-07T00:49:54.395Z,986.62
2022-09-07T00:50:54.409Z,986.61
2022-09-07T00:51:54.366Z,986.59
2022-09-07T00:52:54.410Z,986.55
2022-09-07T00:53:54.337Z,986.58
2022-09-07T00:54:54.324Z,986.59
2022-09-07T00:55:54.323Z,986.54
2022-09-07T00:56:54.313Z,986.44
2022-09-07T00:57:54.291Z,986.25
2022-09-07T00:58:54.286Z,986.14
2022-09-07T00:59:54.384Z,986.01
2022-09-07T01:00:54.291Z,985.93
2022-09-07T01:01:54.436Z,985.85
2022-09-07T01:02:54.398Z,985.83
2022-09-07T01:03:54.229Z,985.78
2022-09-07T01:04:54.221Z,985.75
2022-09-07T01:05:54.220Z,985.72
2022-09-07T01:06:54.197Z,985.73
2022-09-07T01:07:54.229Z,985.64
2022-09-07T01:08:54.182Z,985.52
2022-09-07T01:09:54.164Z,985.48
2022-09-07T01:10:54.170Z,985.47
2022-09-07T01:11:54.145Z,985.41
2022-09-07T01:12:54.138Z,985.40
2022-09-07T01:13:54.125Z,985.38
2022-09-07T01:14:54.118Z,985.42
2022-09-07T01:15:54.146Z,985.49
2022-09-07T01:16:54.094Z,985.47
2022-09-07T01:17:54.087Z,985.53
2022-09-07T01:18:54.076Z,985.54
2022-09-07T01:19:54.077Z,985.56
2022-09-07T01:20:54.066Z,985.55
2022-09-07T01:21:54.041Z,985.47
2022-09-07T01:22:54.032Z,985.51
2022-09-07T01:23:54.034Z,985.44
2022-09-07T01:24:54.011Z,985.42
2022-09-07T01:25:54.021Z,985.39
2022-09-07T01:26:54.001Z,985.30
2022-09-07T01:27:53.978Z,985.29
2022-09-07T01:28:53.977Z,985.25
2022-09-07T01:29:53.956Z,985.28
2022-09-07T01:30:54.059Z,985.30
2022-09-07T01:31:53.939Z,985.33
2022-09-07T01:32:53.929Z,985.26
2022-09-07T01:33:53.915Z,985.26
2022-09-07T01:34:53.908Z,985.27
2022-09-07T01:35:53.936Z,985.26
2022-09-07T01:36:53.884Z,985.22
2022-09-07T01:37:56.882Z,985.26
2022-09-07T01:38:53.885Z,985.29
2022-09-07T01:39:53.978Z,985.30
2022-09-07T01:40:53.857Z,985.34
2022-09-07T01:41:53.838Z,985.28
2022-09-07T01:42:53.828Z,985.28
2022-09-07T01:43:53.811Z,985.30
2022-09-07T01:44:53.809Z,985.29
2022-09-07T01:45:54.396Z,985.33
2022-09-07T01:46:53.789Z,985.32
2022-09-07T01:47:53.788Z,985.29
2022-09-07T01:48:53.766Z,985.28
2022-09-07T01:49:53.767Z,985.30
2022-09-07T01:50:53.950Z,985.34
2022-09-07T01:51:53.739Z,985.27
2022-09-07T01:52:53.719Z,985.31
2022-09-07T01:53:53.718Z,985.31
2022-09-07T01:54:53.800Z,985.29
2022-09-07T01:55:53.689Z,985.30
2022-09-07T01:56:53.690Z,985.27
2022-09-07T01:57:53.662Z,985.30
2022-09-07T01:58:53.730Z,985.24
2022-09-07T01:59:53.680Z,985.28
2022-09-07T02:00:53.648Z,985.24
2022-09-07T02:01:53.838Z,985.23
2022-09-07T02:02:53.708Z,985.22
2022-09-07T02:03:53.621Z,985.27
2022-09-07T02:04:53.599Z,985.20
2022-09-07T02:05:53.598Z,985.19
2022-09-07T02:06:53.615Z,985.19
2022-09-07T02:07:53.558Z,985.16
2022-09-07T02:08:53.554Z,985.12
2022-09-07T02:09:53.539Z,985.15
2022-09-07T02:10:53.530Z,985.11
2022-09-07T02:11:53.535Z,985.12
2022-09-07T02:12:53.530Z,985.08
2022-09-07T02:13:53.508Z,985.07
2022-09-07T02:14:53.505Z,985.05
2022-09-07T02:15:53.553Z,985.10
2022-09-07T02:16:53.506Z,985.06
2022-09-07T02:17:53.461Z,985.17
2022-09-07T02:18:53.456Z,985.16
2022-09-07T02:19:53.431Z,985.11
2022-09-07T02:20:53.422Z,985.13
2022-09-07T02:21:53.425Z,985.13
2022-09-07T02:22:53.405Z,985.11
2022-09-07T02:23:53.394Z,985.10
2022-09-07T02:24:53.412Z,985.09
2022-09-07T02:25:53.372Z,985.08
2022-09-07T02:26:53.374Z,985.09
2022-09-07T02:27:53.361Z,985.08
2022-09-07T02:28:53.366Z,985.08
2022-09-07T02:29:53.336Z,985.06
2022-09-07T02:30:53.371Z,985.07
2022-09-07T02:31:53.320Z,985.03
2022-09-07T02:32:53.298Z,985.02
2022-09-07T02:33:53.293Z,985.05
2022-09-07T02:34:53.280Z,985.09
2022-09-07T02:35:53.265Z,985.09
2022-09-07T02:36:53.296Z,985.09
2022-09-07T02:37:53.245Z,985.12
2022-09-07T02:38:53.237Z,985.14
2022-09-07T02:39:53.274Z,985.11
2022-09-07T02:40:53.223Z,985.17
2022-09-07T02:41:53.217Z,985.14
2022-09-07T02:42:53.194Z,985.14
2022-09-07T02:43:53.184Z,985.10
2022-09-07T02:44:53.171Z,985.06
2022-09-07T02:45:53.205Z,985.07
2022-09-07T02:46:53.169Z,985.02
2022-09-07T02:47:53.140Z,985.03
2022-09-07T02:48:53.129Z,985.04
2022-09-07T02:49:53.123Z,985.06
2022-09-07T02:50:53.124Z,985.07
2022-09-07T02:51:53.128Z,985.05
2022-09-07T02:52:53.090Z,985.08
2022-09-07T02:53:53.080Z,985.09
2022-09-07T02:54:53.077Z,985.08
2022-09-07T02:55:53.061Z,985.09
2022-09-07T02:56:53.062Z,985.06
2022-09-07T02:57:53.045Z,985.06
2022-09-07T02:58:53.028Z,985.15
2022-09-07T02:59:53.016Z,985.03
2022-09-07T03:00:53.013Z,985.05
2022-09-07T03:01:53.065Z,985.07
2022-09-07T03:02:53.190Z,985.05
2022-09-07T03:03:52.991Z,985.13
2022-09-07T03:04:52.987Z,985.10
2022-09-07T03:05:52.954Z,985.14
2022-09-07T03:06:52.954Z,985.20
2022-09-07T03:07:52.934Z,985.13
2022-09-07T03:08:52.942Z,985.10
2022-09-07T03:09:52.909Z,985.07
2022-09-07T03:10:52.901Z,985.04
2022-09-07T03:11:52.904Z,985.06
2022-09-07T03:12:52.884Z,985.04
2022-09-07T03:13:52.869Z,985.04
2022-09-07T03:14:52.857Z,985.02
2022-09-07T03:15:56.050Z,985.00
2022-09-07T03:16:52.871Z,984.93
2022-09-07T03:17:52.834Z,984.91
2022-09-07T03:18:52.815Z,984.89
2022-09-07T03:19:52.805Z,984.87
2022-09-07T03:20:52.797Z,984.89
2022-09-07T03:21:52.811Z,984.88
2022-09-07T03:22:52.801Z,984.89
2022-09-07T03:23:52.767Z,984.89
2022-09-07T03:24:52.760Z,984.94
2022-09-07T03:25:52.748Z,984.89
2022-09-07T03:26:52.752Z,984.86
2022-09-07T03:27:52.752Z,984.79
2022-09-07T03:28:52.721Z,984.86
2022-09-07T03:29:52.704Z,984.81
2022-09-07T03:30:52.795Z,984.80
2022-09-07T03:31:52.699Z,984.84
2022-09-07T03:32:52.692Z,984.83
2022-09-07T03:33:52.665Z,984.84
2022-09-07T03:34:52.649Z,984.84
2022-09-07T03:35:52.643Z,984.86
2022-09-07T03:36:52.644Z,984.84
2022-09-07T03:37:52.677Z,984.88
2022-09-07T03:38:52.607Z,984.86
2022-09-07T03:39:52.689Z,984.91
2022-09-07T03:40:52.588Z,984.84
2022-09-07T03:41:52.605Z,984.79
2022-09-07T03:42:52.564Z,984.78
2022-09-07T03:43:52.558Z,984.81
2022-09-07T03:44:52.560Z,984.78
2022-09-07T03:45:52.582Z,984.82
2022-09-07T03:46:52.544Z,984.81
2022-09-07T03:47:52.558Z,984.82
2022-09-07T03:48:52.507Z,984.76
2022-09-07T03:49:52.532Z,984.76
2022-09-07T03:50:52.491Z,984.72
2022-09-07T03:51:52.495Z,984.74
2022-09-07T03:52:52.462Z,984.70
2022-09-07T03:53:52.464Z,984.63
2022-09-07T03:54:52.594Z,984.66
2022-09-07T03:55:52.438Z,984.65
2022-09-07T03:56:52.435Z,984.63
2022-09-07T03:57:52.412Z,984.63
2022-09-07T03:58:52.401Z,984.65
2022-09-07T03:59:52.411Z,984.65
2022-09-07T04:00:52.382Z,984.67
2022-09-07T04:01:52.426Z,984.64
2022-09-07T04:02:52.405Z,984.67
2022-09-07T04:03:52.356Z,984.65
2022-09-07T04:04:52.340Z,984.70
2022-09-07T04:05:52.332Z,984.71
2022-09-07T04:06:52.351Z,984.67
2022-09-07T04:07:52.322Z,984.64
2022-09-07T04:08:52.298Z,984.71
2022-09-07T04:09:52.285Z,984.70
2022-09-07T04:10:52.301Z,984.72
2022-09-07T04:11:52.269Z,984.70
2022-09-07T04:12:52.310Z,984.75
2022-09-07T04:13:52.273Z,984.77
2022-09-07T04:14:52.236Z,984.79
2022-09-07T04:15:54.030Z,984.76
2022-09-07T04:16:52.257Z,984.74
2022-09-07T04:17:52.218Z,984.73
2022-09-07T04:18:52.193Z,984.72
2022-09-07T04:19:52.193Z,984.69
2022-09-07T04:20:52.183Z,984.75
2022-09-07T04:21:52.181Z,984.73
2022-09-07T04:22:54.289Z,984.74
2022-09-07T04:23:52.147Z,984.73
2022-09-07T04:24:52.135Z,984.74
2022-09-07T04:25:52.132Z,984.76
2022-09-07T04:26:52.141Z,984.69
2022-09-07T04:27:52.123Z,984.72
2022-09-07T04:28:52.094Z,984.72
2022-09-07T04:29:52.084Z,984.73
2022-09-07T04:30:52.149Z,984.68
2022-09-07T04:31:52.071Z,984.72
2022-09-07T04:32:52.082Z,984.73
2022-09-07T04:33:52.058Z,984.77
2022-09-07T04:34:52.036Z,984.75
2022-09-07T04:35:52.033Z,984.76
2022-09-07T04:36:52.020Z,984.79
2022-09-07T04:37:52.033Z,984.80
2022-09-07T04:38:52.011Z,984.78
2022-09-07T04:39:52.066Z,984.79
2022-09-07T04:40:51.973Z,984.84
2022-09-07T04:41:51.964Z,984.83
2022-09-07T04:42:51.963Z,984.81
2022-09-07T04:43:51.939Z,984.88
2022-09-07T04:44:51.931Z,984.87
2022-09-07T04:45:51.963Z,984.87
2022-09-07T04:46:52.107Z,984.91
2022-09-07T04:47:51.972Z,984.91
2022-09-07T04:48:51.889Z,984.96
2022-09-07T04:49:51.892Z,984.94
2022-09-07T04:50:51.872Z,984.96
2022-09-07T04:51:51.897Z,985.00
2022-09-07T04:52:51.860Z,984.98
2022-09-07T04:53:51.839Z,985.00
2022-09-07T04:54:52.453Z,985.02
2022-09-07T04:55:51.837Z,985.03
2022-09-07T04:56:51.822Z,984.99
2022-09-07T04:57:51.824Z,984.95
2022-09-07T04:58:51.799Z,985.01
2022-09-07T04:59:51.794Z,985.01
2022-09-07T05:00:51.776Z,984.96
2022-09-07T05:01:51.806Z,985.02
2022-09-07T05:02:51.775Z,984.99
2022-09-07T05:03:51.751Z,985.04
2022-09-07T05:04:51.778Z,985.08
2022-09-07T05:05:51.713Z,985.05
2022-09-07T05:06:51.703Z,985.08
2022-09-07T05:07:51.710Z,985.11
2022-09-07T05:08:51.680Z,985.14
2022-09-07T05:09:51.673Z,985.18
2022-09-07T05:10:51.706Z,985.15
2022-09-07T05:11:51.659Z,985.15
2022-09-07T05:12:51.679Z,985.15
2022-09-07T05:13:51.635Z,985.16
2022-09-07T05:14:51.633Z,985.16
2022-09-07T05:15:51.613Z,985.18
2022-09-07T05:16:51.700Z,985.15
2022-09-07T05:17:51.624Z,985.23
2022-09-07T05:18:51.580Z,985.17
2022-09-07T05:19:51.574Z,985.12
2022-09-07T05:20:51.560Z,985.11
2022-09-07T05:21:51.550Z,985.10
2022-09-07T05:22:51.555Z,985.11
2022-09-07T05:23:51.531Z,985.06
2022-09-07T05:24:51.518Z,985.09
2022-09-07T05:25:51.513Z,985.06
2022-09-07T05:26:51.502Z,985.10
2022-09-07T05:27:51.507Z,985.11
2022-09-07T05:28:51.983Z,985.16
2022-09-07T05:30:07.213Z,985.14
2022-09-07T05:31:52.486Z,985.19
2022-09-07T05:32:51.454Z,985.17
2022-09-07T05:34:53.112Z,985.13
2022-09-07T05:35:51.423Z,985.18
2022-09-07T05:36:51.398Z,985.18
2022-09-07T05:37:51.422Z,985.15
2022-09-07T05:38:51.376Z,985.18
2022-09-07T05:39:51.449Z,985.23
2022-09-07T05:40:51.391Z,985.26
2022-09-07T05:41:51.346Z,985.23
2022-09-07T05:42:51.346Z,985.22
2022-09-07T05:44:52.324Z,985.20
2022-09-07T05:45:51.354Z,985.23
2022-09-07T05:46:51.292Z,985.25
2022-09-07T05:47:51.969Z,985.26
2022-09-07T05:48:51.271Z,985.27
2022-09-07T05:49:52.995Z,985.26
2022-09-07T05:50:52.251Z,985.22
2022-09-07T05:51:51.244Z,985.20
2022-09-07T05:52:51.248Z,985.20
2022-09-07T05:53:51.233Z,985.22
2022-09-07T05:54:54.280Z,985.18
2022-09-07T05:55:51.205Z,985.25
2022-09-07T05:56:51.192Z,985.27
2022-09-07T05:57:51.196Z,985.26
2022-09-07T05:58:51.172Z,985.32
2022-09-07T05:59:51.186Z,985.30
2022-09-07T06:00:51.150Z,985.26
2022-09-07T06:01:51.258Z,985.27
2022-09-07T06:02:51.282Z,985.33
2022-09-07T06:03:51.136Z,985.31
2022-09-07T06:04:51.134Z,985.33
2022-09-07T06:05:51.124Z,985.33
2022-09-07T06:07:20.227Z,985.29
2022-09-07T06:07:52.093Z,985.31
2022-09-07T06:08:51.070Z,985.30
2022-09-07T06:10:52.044Z,985.38
2022-09-07T06:11:51.038Z,985.42
2022-09-07T06:12:51.038Z,985.44
2022-09-07T06:13:51.018Z,985.44
2022-09-07T06:14:51.004Z,985.42
2022-09-07T06:15:51.001Z,985.35
2022-09-07T06:16:51.077Z,985.33
2022-09-07T06:17:50.994Z,985.34
2022-09-07T06:18:50.967Z,985.37
2022-09-07T06:19:50.955Z,985.39
2022-09-07T06:20:50.942Z,985.42
2022-09-07T06:21:50.938Z,985.44
2022-09-07T06:22:50.942Z,985.46
2022-09-07T06:23:50.942Z,985.51
2022-09-07T06:24:50.907Z,985.51
2022-09-07T06:25:50.900Z,985.48
2022-09-07T06:26:50.897Z,985.54
2022-09-07T06:27:50.898Z,985.56
2022-09-07T06:28:53.775Z,985.55
2022-09-07T06:29:51.853Z,985.52
2022-09-07T06:30:50.842Z,985.55
2022-09-07T06:32:51.849Z,985.55
2022-09-07T06:33:50.813Z,985.60
2022-09-07T06:34:50.806Z,985.60
2022-09-07T06:35:50.808Z,985.62
2022-09-07T06:36:50.779Z,985.63
2022-09-07T06:37:50.804Z,985.67
2022-09-07T06:38:50.759Z,985.66
2022-09-07T06:39:50.816Z,985.66
2022-09-07T06:40:50.856Z,985.65
2022-09-07T06:42:51.755Z,985.64
2022-09-07T06:43:50.711Z,985.64
2022-09-07T06:44:50.709Z,985.66
2022-09-07T06:45:50.900Z,985.64
2022-09-07T06:47:05.970Z,985.62
2022-09-07T06:47:51.713Z,985.62
2022-09-07T06:48:50.664Z,985.59
2022-09-07T06:49:50.648Z,985.62
2022-09-07T06:50:50.652Z,985.63
2022-09-07T06:51:50.636Z,985.65
2022-09-07T06:53:52.082Z,985.69
2022-09-07T06:55:51.587Z,985.73
2022-09-07T06:56:50.578Z,985.71
2022-09-07T06:57:50.583Z,985.69
2022-09-07T06:58:50.555Z,985.72
2022-09-07T06:59:50.548Z,985.63
2022-09-07T07:00:50.556Z,985.67
2022-09-07T07:01:50.530Z,985.70
2022-09-07T07:02:50.593Z,985.65
2022-09-07T07:03:50.521Z,985.69
2022-09-07T07:04:50.508Z,985.71
2022-09-07T07:05:50.488Z,985.72
2022-09-07T07:06:50.472Z,985.71
2022-09-07T07:07:50.483Z,985.74
2022-09-07T07:08:50.453Z,985.74
2022-09-07T07:09:50.442Z,985.78
2022-09-07T07:10:50.431Z,985.73
2022-09-07T07:11:50.422Z,985.77
2022-09-07T07:12:50.431Z,985.79
2022-09-07T07:13:50.403Z,985.79
2022-09-07T07:14:50.395Z,985.83
2022-09-07T07:15:50.380Z,985.81
2022-09-07T07:16:50.453Z,985.83
2022-09-07T07:17:58.114Z,985.88
2022-09-07T07:18:51.480Z,985.83
2022-09-07T07:19:50.339Z,985.84
2022-09-07T07:20:50.339Z,985.86
2022-09-07T07:22:18.773Z,985.88
2022-09-07T07:22:51.307Z,985.90
2022-09-07T07:23:50.329Z,985.86
2022-09-07T07:24:50.287Z,985.87
2022-09-07T07:25:50.285Z,985.85
2022-09-07T07:26:50.284Z,985.86
2022-09-07T07:27:50.418Z,985.82
2022-09-07T07:29:51.234Z,985.90
2022-09-07T07:30:50.230Z,985.89
2022-09-07T07:31:50.213Z,985.95
2022-09-07T07:32:50.206Z,985.90
2022-09-07T07:33:50.346Z,985.90
2022-09-07T07:34:50.186Z,985.92
2022-09-07T07:35:50.187Z,985.95
2022-09-07T07:36:50.162Z,985.97
2022-09-07T07:37:50.207Z,985.95
2022-09-07T07:39:05.609Z,985.98
2022-09-07T07:42:50.124Z,986.11
2022-09-07T07:43:50.099Z,986.11
2022-09-07T07:46:50.394Z,986.12
2022-09-07T07:47:50.051Z,986.16
2022-09-07T07:48:50.059Z,986.18
2022-09-07T07:49:50.074Z,986.20
2022-09-07T07:50:50.083Z,986.20
2022-09-07T07:53:41.254Z,986.13
2022-09-07T07:53:50.999Z,986.21
2022-09-07T07:54:50.005Z,986.15
2022-09-07T07:55:49.967Z,986.22
2022-09-07T07:56:49.966Z,986.21
2022-09-07T07:57:49.954Z,986.17
2022-09-07T07:58:49.966Z,986.15
2022-09-07T07:59:49.955Z,986.15
2022-09-07T08:00:57.437Z,986.19
2022-09-07T08:01:51.022Z,986.15
2022-09-07T08:02:49.973Z,986.18
2022-09-07T08:03:49.907Z,986.20
2022-09-07T08:04:49.873Z,986.17
2022-09-07T08:05:49.893Z,986.19
2022-09-07T08:06:49.850Z,986.21
2022-09-07T08:07:49.838Z,986.17
2022-09-07T08:08:49.842Z,986.18
2022-09-07T08:09:49.820Z,986.21
2022-09-07T08:10:49.810Z,986.20
2022-09-07T08:11:49.810Z,986.22
2022-09-07T08:12:49.789Z,986.20
2022-09-07T08:13:49.815Z,986.23
2022-09-07T08:14:49.812Z,986.24
2022-09-07T08:15:49.865Z,986.25
2022-09-07T08:16:49.765Z,986.25
2022-09-07T08:17:49.735Z,986.25
2022-09-07T08:18:49.741Z,986.28
2022-09-07T08:19:49.716Z,986.23
2022-09-07T08:20:49.703Z,986.20
2022-09-07T08:21:49.725Z,986.18
2022-09-07T08:22:49.681Z,986.21
2022-09-07T08:23:49.743Z,986.22
2022-09-07T08:24:49.665Z,986.18
2022-09-07T08:25:49.651Z,986.24
2022-09-07T08:26:49.638Z,986.26
2022-09-07T08:27:49.633Z,986.27
2022-09-07T08:28:49.649Z,986.23
2022-09-07T08:29:49.605Z,986.25
2022-09-07T08:30:49.598Z,986.30
2022-09-07T08:31:49.723Z,986.36
2022-09-07T08:32:49.576Z,986.30
2022-09-07T08:33:49.587Z,986.33
2022-09-07T08:34:49.573Z,986.31
2022-09-07T08:35:49.543Z,986.33
2022-09-07T08:36:49.535Z,986.32
2022-09-07T08:37:49.544Z,986.37
2022-09-07T08:38:49.521Z,986.40
2022-09-07T08:39:49.561Z,986.41
2022-09-07T08:40:49.497Z,986.38
2022-09-07T08:41:49.482Z,986.41
2022-09-07T08:42:49.471Z,986.42
2022-09-07T08:43:49.463Z,986.38
2022-09-07T08:44:49.470Z,986.36
2022-09-07T08:45:49.444Z,986.36
2022-09-07T08:46:49.517Z,986.34
2022-09-07T08:47:49.427Z,986.38
2022-09-07T08:48:49.430Z,986.41
2022-09-07T08:49:49.437Z,986.40
2022-09-07T08:50:49.391Z,986.48
2022-09-07T08:51:49.387Z,986.44
2022-09-07T08:52:49.389Z,986.45
2022-09-07T08:53:49.378Z,986.44
2022-09-07T08:54:49.365Z,986.42
2022-09-07T08:55:49.337Z,986.41
2022-09-07T08:57:50.340Z,986.45
2022-09-07T08:58:50.158Z,986.47
2022-09-07T08:59:49.312Z,986.46
2022-09-07T09:00:49.476Z,986.45
2022-09-07T09:05:19.763Z,986.53
2022-09-07T09:05:50.397Z,986.54
2022-09-07T09:06:49.388Z,986.50
2022-09-07T09:07:49.217Z,986.51
2022-09-07T09:08:49.209Z,986.51
2022-09-07T09:09:49.248Z,986.48
2022-09-07T09:10:49.206Z,986.42
2022-09-07T09:11:49.195Z,986.48
2022-09-07T09:12:49.193Z,986.51
2022-09-07T09:13:49.190Z,986.50
2022-09-07T09:14:49.157Z,986.49
2022-09-07T09:15:49.210Z,986.48
2022-09-07T09:16:49.129Z,986.50
2022-09-07T09:17:49.116Z,986.51
2022-09-07T09:18:49.103Z,986.52
2022-09-07T09:19:49.105Z,986.48
2022-09-07T09:20:49.082Z,986.51
2022-09-07T09:21:49.070Z,986.49
2022-09-07T09:22:49.063Z,986.51
2022-09-07T09:23:49.051Z,986.50
2022-09-07T09:24:49.056Z,986.53
2022-09-07T09:25:49.056Z,986.58
2022-09-07T09:27:49.011Z,986.56
2022-09-07T09:28:49.003Z,986.58
2022-09-07T09:29:48.999Z,986.57
2022-09-07T09:30:49.028Z,986.60
2022-09-07T09:31:48.966Z,986.71
2022-09-07T09:32:48.955Z,986.69
2022-09-07T09:33:48.955Z,986.64
2022-09-07T09:34:48.956Z,986.59
2022-09-07T09:35:48.931Z,986.55
2022-09-07T09:36:48.958Z,986.57
2022-09-07T09:37:48.906Z,986.60
2022-09-07T09:38:48.920Z,986.57
2022-09-07T09:39:51.017Z,986.52
2022-09-07T09:40:49.875Z,986.52
2022-09-07T09:41:48.913Z,986.50
2022-09-07T09:42:48.851Z,986.48
2022-09-07T09:43:48.840Z,986.53
2022-09-07T09:44:48.853Z,986.44
2022-09-07T09:47:29.645Z,986.41
2022-09-07T09:47:49.917Z,986.37
2022-09-07T09:48:48.791Z,986.39
2022-09-07T09:49:48.815Z,986.43
2022-09-07T09:52:51.997Z,986.39
2022-09-07T09:53:48.739Z,986.48
2022-09-07T09:54:48.740Z,986.45
2022-09-07T09:55:48.717Z,986.45
2022-09-07T09:56:48.708Z,986.45
2022-09-07T09:59:05.772Z,986.36
2022-09-07T10:00:00.297Z,986.37
2022-09-07T10:03:58.397Z,986.31
2022-09-07T10:04:49.647Z,986.38
2022-09-07T10:05:48.615Z,986.39
2022-09-07T10:06:48.609Z,986.39
2022-09-07T10:07:48.597Z,986.37
2022-09-07T10:08:48.582Z,986.34
2022-09-07T10:09:48.618Z,986.34
2022-09-07T10:10:48.572Z,986.32
2022-09-07T10:12:49.538Z,986.31
2022-09-07T10:13:48.554Z,986.39
2022-09-07T10:14:48.531Z,986.35
2022-09-07T10:15:48.560Z,986.35
2022-09-07T10:16:49.083Z,986.35
2022-09-07T10:17:48.488Z,986.35
2022-09-07T10:18:48.481Z,986.27
2022-09-07T10:19:48.483Z,986.28
2022-09-07T10:20:48.458Z,986.24
2022-09-07T10:21:48.449Z,986.25
2022-09-07T10:22:51.437Z,986.23
2022-09-07T10:23:48.437Z,986.27
2022-09-07T10:24:48.434Z,986.20
2022-09-07T10:25:48.434Z,986.20
2022-09-07T10:26:48.435Z,986.19
2022-09-07T10:27:48.412Z,986.17
2022-09-07T10:29:49.382Z,986.21
2022-09-07T10:30:48.487Z,986.18
2022-09-07T10:31:48.343Z,986.17
2022-09-07T10:32:48.338Z,986.19
2022-09-07T10:34:49.310Z,986.07
2022-09-07T10:35:48.329Z,986.09
2022-09-07T10:36:48.292Z,986.04
2022-09-07T10:37:48.292Z,986.09
2022-09-07T10:38:48.335Z,986.09
2022-09-07T10:39:48.308Z,986.05
2022-09-07T10:40:48.262Z,986.03
2022-09-07T10:41:48.244Z,985.97
2022-09-07T10:43:49.221Z,985.98
2022-09-07T10:44:48.212Z,986.01
2022-09-07T10:45:48.268Z,985.94
2022-09-07T10:47:03.664Z,985.89
2022-09-07T10:47:49.184Z,985.91
2022-09-07T10:48:48.173Z,985.91
2022-09-07T10:50:49.168Z,985.93
2022-09-07T10:51:48.168Z,985.90
2022-09-07T10:52:48.128Z,985.89
2022-09-07T10:54:30.158Z,985.88
2022-09-07T10:54:50.108Z,985.86
2022-09-07T10:55:48.185Z,985.85
2022-09-07T10:56:48.087Z,985.84
2022-09-07T10:57:49.203Z,985.83
2022-09-07T10:59:04.244Z,985.86
2022-09-07T11:00:49.113Z,985.84
2022-09-07T11:01:48.077Z,985.83
2022-09-07T11:03:49.070Z,985.87
2022-09-07T11:04:48.008Z,985.84
2022-09-07T11:05:48.005Z,985.79
2022-09-07T11:06:47.981Z,985.85
2022-09-07T11:07:47.970Z,985.84
2022-09-07T11:09:48.957Z,985.79
2022-09-07T11:10:47.989Z,985.88
2022-09-07T11:12:04.078Z,985.79
2022-09-07T11:12:48.919Z,985.77
2022-09-07T11:14:09.309Z,985.72
2022-09-07T11:14:48.899Z,985.72
2022-09-07T11:15:47.977Z,985.73
2022-09-07T11:16:51.600Z,985.66
2022-09-07T11:17:52.542Z,985.66
2022-09-07T11:18:48.864Z,985.68
2022-09-07T11:19:47.846Z,985.76
2022-09-07T11:20:47.930Z,985.72
2022-09-07T11:22:03.109Z,985.75
2022-09-07T11:22:48.816Z,985.72
2022-09-07T11:23:47.817Z,985.69
2022-09-07T11:24:48.168Z,985.71
2022-09-07T11:25:48.801Z,985.67
2022-09-07T11:26:47.789Z,985.72
2022-09-07T11:27:47.827Z,985.75
2022-09-07T11:28:47.976Z,985.77
2022-09-07T11:29:47.744Z,985.78
2022-09-07T11:30:47.812Z,985.78
2022-09-07T11:31:47.723Z,985.72
2022-09-07T11:32:47.724Z,985.67
2022-09-07T11:34:23.698Z,985.67
2022-09-07T11:34:48.692Z,985.68
2022-09-07T11:35:47.683Z,985.65
2022-09-07T11:36:47.685Z,985.60
2022-09-07T11:37:47.838Z,985.58
2022-09-07T11:38:47.655Z,985.56
2022-09-07T11:39:47.682Z,985.53
2022-09-07T11:40:47.642Z,985.50
2022-09-07T11:41:47.619Z,985.51
2022-09-07T11:42:47.609Z,985.54
2022-09-07T11:43:47.600Z,985.53
2022-09-07T11:44:47.628Z,985.53
2022-09-07T11:45:47.675Z,985.56
2022-09-07T11:46:47.602Z,985.63
2022-09-07T11:47:47.560Z,985.60
2022-09-07T11:48:47.550Z,985.56
2022-09-07T11:49:51.999Z,985.57
2022-09-07T11:50:48.548Z,985.56
2022-09-07T11:51:53.667Z,985.49
2022-09-07T11:52:53.670Z,985.50
2022-09-07T11:53:48.497Z,985.48
2022-09-07T11:54:47.481Z,985.54
2022-09-07T11:55:47.491Z,985.52
2022-09-07T11:56:47.479Z,985.52
2022-09-07T11:57:47.828Z,985.56
2022-09-07T11:58:47.492Z,985.54
2022-09-07T11:59:48.111Z,985.50
2022-09-07T12:00:47.441Z,985.47
2022-09-07T12:01:47.434Z,985.48
2022-09-07T12:02:59.241Z,985.42
2022-09-07T12:03:48.621Z,985.37
2022-09-07T12:04:47.406Z,985.37
2022-09-07T12:05:47.392Z,985.46
2022-09-07T12:06:47.861Z,985.45
2022-09-07T12:07:47.351Z,985.39
2022-09-07T12:08:47.338Z,985.45
2022-09-07T12:09:47.345Z,985.40
2022-09-07T12:10:47.317Z,985.33
2022-09-07T12:11:47.345Z,985.39
2022-09-07T12:12:47.325Z,985.29
2022-09-07T12:13:47.306Z,985.27
2022-09-07T12:14:47.288Z,985.27
2022-09-07T12:15:47.351Z,985.36
2022-09-07T12:16:47.274Z,985.33
2022-09-07T12:17:47.248Z,985.34
2022-09-07T12:18:47.240Z,985.32
2022-09-07T12:19:47.228Z,985.23
2022-09-07T12:20:47.215Z,985.23
2022-09-07T12:21:47.260Z,985.23
2022-09-07T12:22:47.197Z,985.24
2022-09-07T12:23:47.201Z,985.22
2022-09-07T12:24:47.178Z,985.13
2022-09-07T12:25:47.167Z,985.12
2022-09-07T12:26:47.206Z,985.15
2022-09-07T12:27:47.148Z,985.13
2022-09-07T12:28:47.135Z,985.20
2022-09-07T12:29:47.238Z,985.15
2022-09-07T12:30:47.161Z,985.24
2022-09-07T12:31:57.523Z,985.21
2022-09-07T12:32:57.130Z,985.25
2022-09-07T12:33:48.099Z,985.24
2022-09-07T12:34:47.098Z,985.25
2022-09-07T12:35:47.067Z,985.27
2022-09-07T12:36:47.066Z,985.28
2022-09-07T12:37:47.077Z,985.25
2022-09-07T12:38:47.037Z,985.32
2022-09-07T12:39:47.029Z,985.28
2022-09-07T12:40:47.013Z,985.28
2022-09-07T12:41:47.849Z,985.30
2022-09-07T12:42:47.042Z,985.27
2022-09-07T12:43:46.986Z,985.30
2022-09-07T12:44:46.999Z,985.25
2022-09-07T12:45:47.007Z,985.20
2022-09-07T12:46:47.113Z,985.11
2022-09-07T12:47:47.658Z,985.08
2022-09-07T12:48:46.967Z,985.09
2022-09-07T12:49:46.936Z,985.12
2022-09-07T12:50:46.915Z,985.12
2022-09-07T12:52:11.568Z,985.16
2022-09-07T12:52:47.893Z,985.13
2022-09-07T12:53:46.904Z,985.15
2022-09-07T12:54:46.871Z,985.19
2022-09-07T12:57:29.158Z,985.10
2022-09-07T12:57:47.846Z,985.10
2022-09-07T12:58:46.827Z,985.12
2022-09-07T12:59:46.822Z,985.10
2022-09-07T13:00:46.830Z,985.14
2022-09-07T13:01:46.939Z,985.12
2022-09-07T13:02:46.813Z,985.13
2022-09-07T13:03:51.391Z,985.10
2022-09-07T13:04:47.774Z,985.15